createdAt,value
2023-02-28T09:10:36.961Z,98794.00
2023-02-28T09:13:04.314Z,98787.00
2023-02-28T09:15:31.624Z,98792.00
2023-02-28T09:17:58.978Z,98798.00
2023-02-28T09:20:26.563Z,98794.00
2023-02-28T09:22:53.915Z,98804.00
2023-02-28T09:25:21.282Z,98800.00
2023-02-28T09:27:48.637Z,98795.00
2023-02-28T09:30:17.213Z,98810.00
2023-02-28T09:32:54.708Z,98804.00
2023-02-28T09:35:27.731Z,98793.00
2023-02-28T09:37:55.172Z,98807.00
2023-02-28T09:40:26.583Z,98807.00
2023-02-28T09:42:58.276Z,98808.00
2023-02-28T09:45:43.668Z,98805.00
2023-02-28T09:48:27.838Z,98802.00
2023-02-28T09:51:13.654Z,98815.00
2023-02-28T09:53:41.093Z,98812.00
2023-02-28T09:56:42.866Z,98801.00
2023-02-28T09:59:45.656Z,98809.00
2023-02-28T10:03:05.056Z,98808.00
2023-02-28T10:06:18.143Z,98812.00
2023-02-28T10:09:14.464Z,98811.00
2023-02-28T10:11:43.855Z,98808.00
2023-02-28T10:14:28.594Z,98812.00
2023-02-28T10:17:26.460Z,98828.00
2023-02-28T10:20:30.744Z,98827.00
2023-02-28T10:23:32.840Z,98830.00
2023-02-28T10:26:17.076Z,98831.00
2023-02-28T10:28:45.497Z,98834.00
2023-02-28T10:31:22.679Z,98831.00
2023-02-28T10:33:51.396Z,98828.00
2023-02-28T10:36:22.814Z,98841.00
2023-02-28T10:38:51.461Z,98826.00
2023-02-28T10:41:37.262Z,98828.00
2023-02-28T10:44:34.154Z,98833.00
2023-02-28T10:47:01.502Z,98827.00
2023-02-28T10:49:30.236Z,98826.00
2023-02-28T10:52:01.964Z,98827.00
2023-02-28T10:54:38.847Z,98828.00
2023-02-28T10:57:29.596Z,98834.00
2023-02-28T11:00:22.587Z,98835.00
2023-02-28T11:02:50.415Z,98829.00
2023-02-28T11:05:32.627Z,98835.00
2023-02-28T11:08:16.940Z,98843.00
2023-02-28T11:11:00.138Z,98838.00
2023-02-28T11:13:37.240Z,98834.00
2023-02-28T11:16:13.724Z,98841.00
2023-02-28T11:18:56.401Z,98847.00
2023-02-28T11:21:37.666Z,98827.00
2023-02-28T11:24:30.073Z,98839.00
2023-02-28T11:26:58.272Z,98831.00
2023-02-28T11:29:35.657Z,98825.00
2023-02-28T11:32:29.726Z,98821.00
2023-02-28T11:35:23.457Z,98831.00
2023-02-28T11:37:51.008Z,98826.00
2023-02-28T11:40:39.799Z,98835.00
2023-02-28T11:43:57.457Z,98837.00
2023-02-28T11:46:55.363Z,98832.00
2023-02-28T11:50:18.673Z,98837.00
2023-02-28T11:53:32.088Z,98828.00
2023-02-28T11:56:43.545Z,98837.00
2023-02-28T11:59:50.300Z,98828.00
2023-02-28T12:03:42.538Z,98827.00
2023-02-28T12:06:36.663Z,98826.00
2023-02-28T12:10:06.182Z,98823.00
2023-02-28T12:13:28.110Z,98833.00
2023-02-28T12:16:39.830Z,98830.00
2023-02-28T12:19:59.314Z,98825.00
2023-02-28T12:22:43.536Z,98825.00
2023-02-28T12:26:11.306Z,98824.00
2023-02-28T12:28:54.525Z,98818.00
2023-02-28T12:31:32.102Z,98824.00
2023-02-28T12:34:11.146Z,98821.00
2023-02-28T12:36:41.132Z,98819.00
2023-02-28T12:39:39.085Z,98818.00
2023-02-28T12:42:33.490Z,98816.00
2023-02-28T12:45:24.892Z,98807.00
2023-02-28T12:48:23.101Z,98815.00
2023-02-28T12:50:51.399Z,98808.00
2023-02-28T12:54:11.584Z,98812.00
2023-02-28T12:57:35.951Z,98812.00
2023-02-28T13:00:23.295Z,98811.00
2023-02-28T13:03:26.060Z,98813.00
2023-02-28T13:06:36.615Z,98807.00
2023-02-28T13:09:14.789Z,98799.00
2023-02-28T13:11:48.699Z,98805.00
2023-02-28T13:14:34.292Z,98807.00
2023-02-28T13:17:14.131Z,98802.00
2023-02-28T13:20:38.069Z,98809.00
2023-02-28T13:23:25.405Z,98813.00
2023-02-28T13:25:54.622Z,98808.00
2023-02-28T13:28:56.593Z,98817.00
2023-02-28T13:31:23.988Z,98815.00
2023-02-28T13:34:00.553Z,98824.00
2023-02-28T13:36:33.859Z,98809.00
2023-02-28T13:39:37.794Z,98824.00
2023-02-28T13:42:36.998Z,98817.00
2023-02-28T13:45:06.926Z,98813.00
2023-02-28T13:48:15.856Z,98821.00
2023-02-28T13:50:44.847Z,98811.00
2023-02-28T13:53:14.964Z,98823.00
2023-02-28T13:56:11.241Z,98823.00
2023-02-28T13:59:21.905Z,98818.00
2023-02-28T14:02:50.178Z,98824.00
2023-02-28T14:05:26.704Z,98830.00
2023-02-28T14:08:07.398Z,98828.00
2023-02-28T14:10:49.903Z,98835.00
2023-02-28T14:13:48.342Z,98842.00
2023-02-28T14:16:40.311Z,98833.00
2023-02-28T14:19:28.532Z,98822.00
2023-02-28T14:23:01.545Z,98829.00
2023-02-28T14:25:54.702Z,98833.00
2023-02-28T14:29:25.624Z,98823.00
2023-02-28T14:32:23.373Z,98833.00
2023-02-28T14:35:59.040Z,98835.00
2023-02-28T14:39:17.156Z,98834.00
2023-02-28T14:41:46.956Z,98837.00
2023-02-28T14:44:28.950Z,98841.00
2023-02-28T14:47:09.934Z,98833.00
2023-02-28T14:49:46.781Z,98837.00
2023-02-28T14:52:25.288Z,98841.00
2023-02-28T14:55:15.527Z,98850.00
2023-02-28T14:58:05.182Z,98850.00
2023-02-28T15:00:51.811Z,98848.00
2023-02-28T15:03:38.001Z,98859.00
2023-02-28T15:06:17.665Z,98844.00
2023-02-28T15:08:46.621Z,98844.00
2023-02-28T15:11:23.185Z,98849.00
2023-02-28T15:13:56.529Z,98859.00
2023-02-28T15:16:38.460Z,98855.00
2023-02-28T15:19:27.267Z,98855.00
2023-02-28T15:22:17.845Z,98860.00
2023-02-28T15:24:52.207Z,98863.00
2023-02-28T15:27:34.679Z,98868.00
2023-02-28T15:30:33.663Z,98865.00
2023-02-28T15:33:25.979Z,98868.00
2023-02-28T15:36:16.915Z,98863.00
2023-02-28T15:38:45.021Z,98872.00
2023-02-28T15:41:39.085Z,98871.00
2023-02-28T15:44:39.132Z,98864.00
2023-02-28T15:47:26.122Z,98837.00
2023-02-28T15:50:13.486Z,98854.00
2023-02-28T15:52:45.991Z,98855.00
2023-02-28T15:55:30.773Z,98857.00
2023-02-28T15:58:02.921Z,98863.00
2023-02-28T16:00:33.957Z,98861.00
2023-02-28T16:03:01.410Z,98862.00
2023-02-28T16:05:32.886Z,98864.00
2023-02-28T16:08:16.573Z,98860.00
2023-02-28T16:10:43.899Z,98866.00
2023-02-28T16:13:16.142Z,98866.00
2023-02-28T16:15:44.887Z,98871.00
2023-02-28T16:18:14.179Z,98869.00
2023-02-28T16:20:42.383Z,98894.00
2023-02-28T16:23:09.690Z,98886.00
2023-02-28T16:25:44.621Z,98880.00
2023-02-28T16:28:39.848Z,98889.00
2023-02-28T16:31:08.603Z,98889.00
2023-02-28T16:33:35.994Z,98892.00
2023-02-28T16:36:03.701Z,98890.00
2023-02-28T16:38:31.052Z,98893.00
2023-02-28T16:41:01.077Z,98897.00
2023-02-28T16:43:29.067Z,98907.00
2023-02-28T16:46:02.372Z,98902.00
2023-02-28T16:48:30.566Z,98909.00
2023-02-28T16:50:58.093Z,98906.00
2023-02-28T16:53:25.361Z,98912.00
2023-02-28T16:55:52.736Z,98919.00
2023-02-28T16:58:22.673Z,98908.00
2023-02-28T17:00:50.212Z,98921.00
2023-02-28T17:03:33.489Z,98919.00
2023-02-28T17:06:02.237Z,98926.00
2023-02-28T17:08:30.802Z,98925.00
2023-02-28T17:10:58.140Z,98933.00
2023-02-28T17:13:25.878Z,98921.00
2023-02-28T17:15:53.346Z,98932.00
2023-02-28T17:18:22.071Z,98926.00
2023-02-28T17:20:49.984Z,98931.00
2023-02-28T17:23:17.406Z,98925.00
2023-02-28T17:25:56.390Z,98933.00
2023-02-28T17:28:25.849Z,98944.00
2023-02-28T17:30:53.245Z,98928.00
2023-02-28T17:33:20.573Z,98932.00
2023-02-28T17:35:48.255Z,98939.00
2023-02-28T17:38:20.621Z,98934.00
2023-02-28T17:40:48.000Z,98946.00
2023-02-28T17:43:15.888Z,98937.00
2023-02-28T17:45:43.386Z,98945.00
2023-02-28T17:48:13.994Z,98940.00
2023-02-28T17:50:41.408Z,98943.00
2023-02-28T17:53:08.715Z,98941.00
2023-02-28T17:55:36.911Z,98941.00
2023-02-28T17:58:04.859Z,98936.00
2023-02-28T18:00:35.553Z,98944.00
2023-02-28T18:03:02.942Z,98945.00
2023-02-28T18:05:31.068Z,98947.00
2023-02-28T18:07:58.579Z,98943.00
2023-02-28T18:10:28.281Z,98946.00
2023-02-28T18:12:55.858Z,98951.00
2023-02-28T18:15:23.622Z,98949.00
2023-02-28T18:17:51.168Z,98950.00
2023-02-28T18:20:19.633Z,98962.00
2023-02-28T18:22:47.619Z,98954.00
2023-02-28T18:25:17.054Z,98937.00
2023-02-28T18:27:58.596Z,98941.00
2023-02-28T18:30:37.342Z,98948.00
2023-02-28T18:33:05.272Z,98939.00
2023-02-28T18:35:36.153Z,98937.00
2023-02-28T18:38:30.095Z,98930.00
2023-02-28T18:41:05.458Z,98933.00
2023-02-28T18:43:36.572Z,98935.00
2023-02-28T18:46:15.689Z,98926.00
2023-02-28T18:48:44.047Z,98923.00
2023-02-28T18:51:23.599Z,98924.00
2023-02-28T18:53:51.066Z,98918.00
2023-02-28T18:56:23.885Z,98926.00
2023-02-28T18:58:52.925Z,98928.00
2023-02-28T19:01:31.050Z,98926.00
2023-02-28T19:04:01.808Z,98923.00
2023-02-28T19:06:31.261Z,98930.00
2023-02-28T19:09:03.819Z,98919.00
2023-02-28T19:11:32.101Z,98928.00
2023-02-28T19:13:59.676Z,98924.00
2023-02-28T19:16:28.308Z,98927.00
2023-02-28T19:18:56.064Z,98917.00
2023-02-28T19:21:25.057Z,98934.00
2023-02-28T19:23:53.291Z,98929.00
2023-02-28T19:26:25.564Z,98921.00
2023-02-28T19:28:53.617Z,98936.00
2023-02-28T19:31:26.671Z,98925.00
2023-02-28T19:33:54.957Z,98929.00
2023-02-28T19:36:23.468Z,98928.00
2023-02-28T19:38:51.181Z,98925.00
2023-02-28T19:41:19.543Z,98932.00
2023-02-28T19:43:47.915Z,98928.00
2023-02-28T19:46:15.531Z,98929.00
2023-02-28T19:48:44.761Z,98940.00
2023-02-28T19:51:14.984Z,98925.00
2023-02-28T19:53:43.555Z,98931.00
2023-02-28T19:56:12.055Z,98934.00
2023-02-28T19:58:40.063Z,98929.00
2023-02-28T20:01:18.862Z,98924.00
2023-02-28T20:03:51.756Z,98919.00
2023-02-28T20:06:19.292Z,98918.00
2023-02-28T20:08:46.602Z,98921.00
2023-02-28T20:11:17.535Z,98921.00
2023-02-28T20:13:45.866Z,98909.00
2023-02-28T20:16:15.969Z,98919.00
2023-02-28T20:18:46.662Z,98915.00
2023-02-28T20:21:14.318Z,98919.00
2023-02-28T20:23:43.380Z,98915.00
2023-02-28T20:26:12.463Z,98923.00
2023-02-28T20:28:40.487Z,98914.00
